Morning Cedar — D7LR — position and weather

sailwx.info

Track history (hours):
 
Tides and Currents Weather Stations Pressure Air Temp Water Temp Dewpoint Dewpoint Depression Visibility Wind Speed Wind Dir Waves Ship Positions

Morning Cedar

Last reported at 2014-Dec-11 00:17 UTC. Time now 2014-Dec-21 03:19 UTC.
Position S 26°03' E 153°53'.
Warning: this ship's position is 10 days out of date.

Length 269 m; draft 15.5 m.

Type: Cargo ship. MMSI: 440106000.

Date/timePositionNaut miles runAvg speedWind from/ knotsBaromVisibWave heightAir tempDewpointWater temp
2014-Dec-11 00:17S 26°03' E 153°53'7 7.9
2014-Dec-10 23:26S 26°10' E 153°53'7 7.7
2014-Dec-10 22:33S 26°17' E 153°52'7 7.4
2014-Dec-10 21:33S 26°24' E 153°52'8 7.6
2014-Dec-10 20:33S 26°32' E 153°52'10 7.5
2014-Dec-10 19:11S 26°42' E 153°52'24 7.9
2014-Dec-10 16:08S 27°06' E 153°50'9 9.5
2014-Dec-10 15:09S 27°15' E 153°49'5 8.6
2014-Dec-10 14:33S 27°21' E 153°49'313 9.8
2014-Dec-09 06:33S 32°28' E 152°37'1010.1
2014-Dec-09 05:33S 32°36' E 152°32'1010.3
2014-Dec-09 04:33S 32°44' E 152°24'1010.3
2014-Dec-09 03:33S 32°51' E 152°14'1010.3
2014-Dec-09 02:33S 32°55' E 152°03'1010.1
2014-Dec-09 01:33S 32°56' E 151°51'4 4.1
2014-Dec-09 00:33S 32°54' E 151°46'1 1.4
2014-Dec-08 23:32S 32°53' E 151°45'0 0.0
2014-Dec-08 22:20S 32°53' E 151°45'0 0.0
2014-Dec-08 21:20S 32°53' E 151°45'0 0.0
2014-Dec-08 20:32S 32°53' E 151°45'0 0.0
2014-Dec-08 19:26S 32°53' E 151°45'0 0.0
2014-Dec-08 17:26S 32°53' E 151°45'0 0.0
2014-Dec-08 16:32S 32°53' E 151°45'0 0.0
2014-Dec-08 15:26S 32°53' E 151°45'0 0.0
2014-Dec-08 14:20S 32°53' E 151°45'0 0.0
2014-Dec-08 13:32S 32°53' E 151°45'0 0.0
2014-Dec-08 12:32S 32°53' E 151°45'0 0.0
2014-Dec-08 11:32S 32°53' E 151°45'0 0.0
2014-Dec-08 10:32S 32°53' E 151°45'0 0.0
2014-Dec-08 09:32S 32°53' E 151°45'0 0.0
2014-Dec-08 08:26S 32°53' E 151°45'0 0.1
2014-Dec-08 07:32S 32°53' E 151°45'0 0.0
2014-Dec-08 06:32S 32°53' E 151°45'0 0.0
2014-Dec-08 05:32S 32°53' E 151°45'0 0.0
2014-Dec-08 04:32S 32°53' E 151°45'0 0.0
2014-Dec-08 03:32S 32°53' E 151°45'0 0.0
2014-Dec-08 02:32S 32°53' E 151°45'0 0.0
2014-Dec-08 01:32S 32°53' E 151°45'0 0.0
2014-Dec-08 00:32S 32°53' E 151°45'0 0.0
2014-Dec-07 23:32S 32°53' E 151°45'0 0.0
2014-Dec-07 22:32S 32°53' E 151°45'0 0.0
2014-Dec-07 21:32S 32°53' E 151°45'0 0.0
2014-Dec-07 20:32S 32°53' E 151°45'0 0.0
2014-Dec-07 19:26S 32°53' E 151°45'0 0.1
2014-Dec-07 18:33S 32°53' E 151°45'3 2.8
2014-Dec-07 17:33S 32°55' E 151°48'7 6.7
2014-Dec-07 16:33S 32°59' E 151°54'1111.4
2014-Dec-07 15:33S 32°57' E 152°08'1212.3
2014-Dec-07 14:33S 32°49' E 152°19'1212.3
2014-Dec-07 13:33S 32°40' E 152°29'1212.3
2014-Dec-07 12:33S 32°31' E 152°38'1211.9
2014-Dec-07 11:33S 32°20' E 152°45'28214.1
2014-Dec-06 15:29S 27°46' E 154°05'3515.1
2014-Dec-06 13:09S 27°11' E 154°04'1015.4
2014-Dec-06 12:31S 27°01' E 154°04'4615.2
2014-Dec-06 09:31S 26°16' E 154°05'  
Track history (hours):
 
Tides and Currents Weather Stations Pressure Air Temp Water Temp Dewpoint Dewpoint Depression Visibility Wind Speed Wind Dir Waves Ship Positions

Morning Cedar

Last reported at 2014-Dec-11 00:17 UTC. Time now 2014-Dec-21 03:19 UTC.
Position S 26°03' E 153°53'.
Warning: this ship's position is 10 days out of date.

Length 269 m; draft 15.5 m.

Type: Cargo ship. MMSI: 440106000.

Date/timePositionNaut miles runAvg speedWind from/ knotsBaromVisibWave heightAir tempDewpointWater temp
2014-Dec-11 00:17S 26°03' E 153°53'7 7.9
2014-Dec-10 23:26S 26°10' E 153°53'7 7.7
2014-Dec-10 22:33S 26°17' E 153°52'7 7.4
2014-Dec-10 21:33S 26°24' E 153°52'8 7.6
2014-Dec-10 20:33S 26°32' E 153°52'10 7.5
2014-Dec-10 19:11S 26°42' E 153°52'24 7.9
2014-Dec-10 16:08S 27°06' E 153°50'9 9.5
2014-Dec-10 15:09S 27°15' E 153°49'5 8.6
2014-Dec-10 14:33S 27°21' E 153°49'313 9.8
2014-Dec-09 06:33S 32°28' E 152°37'1010.1
2014-Dec-09 05:33S 32°36' E 152°32'1010.3
2014-Dec-09 04:33S 32°44' E 152°24'1010.3
2014-Dec-09 03:33S 32°51' E 152°14'1010.3
2014-Dec-09 02:33S 32°55' E 152°03'1010.1
2014-Dec-09 01:33S 32°56' E 151°51'4 4.1
2014-Dec-09 00:33S 32°54' E 151°46'1 1.4
2014-Dec-08 23:32S 32°53' E 151°45'0 0.0
2014-Dec-08 22:20S 32°53' E 151°45'0 0.0
2014-Dec-08 21:20S 32°53' E 151°45'0 0.0
2014-Dec-08 20:32S 32°53' E 151°45'0 0.0
2014-Dec-08 19:26S 32°53' E 151°45'0 0.0
2014-Dec-08 17:26S 32°53' E 151°45'0 0.0
2014-Dec-08 16:32S 32°53' E 151°45'0 0.0
2014-Dec-08 15:26S 32°53' E 151°45'0 0.0
2014-Dec-08 14:20S 32°53' E 151°45'0 0.0
2014-Dec-08 13:32S 32°53' E 151°45'0 0.0
2014-Dec-08 12:32S 32°53' E 151°45'0 0.0
2014-Dec-08 11:32S 32°53' E 151°45'0 0.0
2014-Dec-08 10:32S 32°53' E 151°45'0 0.0
2014-Dec-08 09:32S 32°53' E 151°45'0 0.0
2014-Dec-08 08:26S 32°53' E 151°45'0 0.1
2014-Dec-08 07:32S 32°53' E 151°45'0 0.0
2014-Dec-08 06:32S 32°53' E 151°45'0 0.0
2014-Dec-08 05:32S 32°53' E 151°45'0 0.0
2014-Dec-08 04:32S 32°53' E 151°45'0 0.0
2014-Dec-08 03:32S 32°53' E 151°45'0 0.0
2014-Dec-08 02:32S 32°53' E 151°45'0 0.0
2014-Dec-08 01:32S 32°53' E 151°45'0 0.0
2014-Dec-08 00:32S 32°53' E 151°45'0 0.0
2014-Dec-07 23:32S 32°53' E 151°45'0 0.0
2014-Dec-07 22:32S 32°53' E 151°45'0 0.0
2014-Dec-07 21:32S 32°53' E 151°45'0 0.0
2014-Dec-07 20:32S 32°53' E 151°45'0 0.0
2014-Dec-07 19:26S 32°53' E 151°45'0 0.1
2014-Dec-07 18:33S 32°53' E 151°45'3 2.8
2014-Dec-07 17:33S 32°55' E 151°48'7 6.7
2014-Dec-07 16:33S 32°59' E 151°54'1111.4
2014-Dec-07 15:33S 32°57' E 152°08'1212.3
2014-Dec-07 14:33S 32°49' E 152°19'1212.3
2014-Dec-07 13:33S 32°40' E 152°29'1212.3
2014-Dec-07 12:33S 32°31' E 152°38'1211.9
2014-Dec-07 11:33S 32°20' E 152°45'28214.1
2014-Dec-06 15:29S 27°46' E 154°05'3515.1
2014-Dec-06 13:09S 27°11' E 154°04'1015.4
2014-Dec-06 12:31S 27°01' E 154°04'4615.2
2014-Dec-06 09:31S 26°16' E 154°05'  

Dump ship's entire track history